createdAt,value
2022-11-20T00:00:12.000Z,99.61
2022-11-20T00:01:12.000Z,99.61
2022-11-20T00:02:12.000Z,99.61
2022-11-20T00:03:12.000Z,99.61
2022-11-20T00:04:12.000Z,99.61
2022-11-20T00:05:12.000Z,99.71
2022-11-20T00:06:12.000Z,99.71
2022-11-20T00:07:12.000Z,99.71
2022-11-20T00:08:12.000Z,99.71
2022-11-20T00:09:12.000Z,99.71
2022-11-20T00:10:12.000Z,99.71
2022-11-20T00:11:12.000Z,99.82
2022-11-20T00:12:12.000Z,99.82
2022-11-20T00:13:12.000Z,99.82
2022-11-20T00:14:12.000Z,99.82
2022-11-20T00:15:12.000Z,99.82
2022-11-20T00:16:12.000Z,99.82
2022-11-20T00:17:12.000Z,99.82
2022-11-20T00:18:12.000Z,99.82
2022-11-20T00:19:12.000Z,99.82
2022-11-20T00:20:12.000Z,99.93
2022-11-20T00:21:12.000Z,99.93
2022-11-20T00:22:12.000Z,99.93
2022-11-20T00:23:12.000Z,99.99
2022-11-20T00:24:12.000Z,99.99
2022-11-20T00:25:12.000Z,99.99
2022-11-20T00:26:12.000Z,99.99
2022-11-20T00:27:12.000Z,99.99
2022-11-20T00:28:12.000Z,99.99
2022-11-20T00:29:12.000Z,99.99
2022-11-20T00:30:12.000Z,99.99
2022-11-20T00:31:12.000Z,99.99
2022-11-20T00:32:12.000Z,99.99
2022-11-20T00:33:12.000Z,99.99
2022-11-20T00:34:12.000Z,99.99
2022-11-20T00:35:12.000Z,99.99
2022-11-20T00:36:12.000Z,99.99
2022-11-20T00:37:12.000Z,99.99
2022-11-20T00:38:12.000Z,99.99
2022-11-20T00:39:12.000Z,99.99
2022-11-20T00:40:11.000Z,99.99
2022-11-20T00:41:11.000Z,99.99
2022-11-20T00:42:11.000Z,99.99
2022-11-20T00:43:11.000Z,99.99
2022-11-20T00:44:11.000Z,99.99
2022-11-20T00:45:11.000Z,99.99
2022-11-20T00:46:11.000Z,99.99
2022-11-20T00:47:11.000Z,99.99
2022-11-20T00:48:11.000Z,99.99
2022-11-20T00:49:11.000Z,99.99
2022-11-20T00:50:11.000Z,99.99
2022-11-20T00:51:11.000Z,99.99
2022-11-20T00:52:11.000Z,99.99
2022-11-20T00:53:11.000Z,99.99
2022-11-20T00:54:11.000Z,99.99
2022-11-20T00:55:11.000Z,99.99
2022-11-20T00:56:11.000Z,99.99
2022-11-20T00:57:11.000Z,99.99
2022-11-20T00:58:11.000Z,99.99
2022-11-20T00:58:11.000Z,99.99
2022-11-20T00:59:11.000Z,99.99
2022-11-20T00:59:11.000Z,99.99
2022-11-20T01:00:11.000Z,99.99
2022-11-20T01:00:11.000Z,99.99
2022-11-20T01:01:11.000Z,99.99
2022-11-20T01:01:11.000Z,99.99
2022-11-20T01:02:11.000Z,99.99
2022-11-20T01:02:11.000Z,99.99
2022-11-20T01:03:11.000Z,99.99
2022-11-20T01:04:11.000Z,99.99
2022-11-20T01:05:11.000Z,99.99
2022-11-20T01:06:11.000Z,99.99
2022-11-20T01:07:11.000Z,99.99
2022-11-20T01:08:11.000Z,99.99
2022-11-20T01:08:11.000Z,99.99
2022-11-20T01:09:11.000Z,99.99
2022-11-20T01:09:11.000Z,99.99
2022-11-20T01:10:11.000Z,99.99
2022-11-20T01:10:11.000Z,99.99
2022-11-20T01:11:11.000Z,99.99
2022-11-20T01:11:11.000Z,99.99
2022-11-20T01:12:11.000Z,99.99
2022-11-20T01:12:11.000Z,99.99
2022-11-20T01:13:11.000Z,99.99
2022-11-20T01:14:11.000Z,99.99
2022-11-20T01:15:11.000Z,99.99
2022-11-20T01:16:11.000Z,99.99
2022-11-20T01:17:11.000Z,99.99
2022-11-20T01:18:11.000Z,99.99
2022-11-20T01:19:11.000Z,99.99
2022-11-20T01:20:11.000Z,99.99
2022-11-20T01:21:11.000Z,99.99
2022-11-20T01:22:11.000Z,99.99
2022-11-20T01:23:11.000Z,99.99
2022-11-20T01:24:11.000Z,99.99
2022-11-20T01:25:11.000Z,99.99
2022-11-20T01:26:11.000Z,99.99
2022-11-20T01:27:11.000Z,99.99
2022-11-20T01:28:11.000Z,99.99
2022-11-20T01:29:11.000Z,99.99
2022-11-20T01:30:11.000Z,99.99
2022-11-20T01:31:11.000Z,99.99
2022-11-20T01:32:11.000Z,99.99
2022-11-20T01:33:11.000Z,99.99
2022-11-20T01:34:11.000Z,99.99
2022-11-20T01:35:11.000Z,99.99
2022-11-20T01:36:11.000Z,99.99
2022-11-20T01:37:11.000Z,99.99
2022-11-20T01:38:11.000Z,99.99
2022-11-20T01:39:11.000Z,99.99
2022-11-20T01:40:11.000Z,99.99
2022-11-20T01:41:11.000Z,99.99
2022-11-20T01:42:11.000Z,99.99
2022-11-20T01:43:11.000Z,99.99
2022-11-20T01:44:11.000Z,99.99
2022-11-20T01:45:11.000Z,99.99
2022-11-20T01:46:11.000Z,99.91
2022-11-20T01:47:11.000Z,99.99
2022-11-20T01:48:11.000Z,99.99
2022-11-20T01:49:11.000Z,99.99
2022-11-20T01:50:11.000Z,99.99
2022-11-20T01:51:11.000Z,99.99
2022-11-20T01:52:11.000Z,99.99
2022-11-20T01:53:11.000Z,99.99
2022-11-20T01:54:11.000Z,99.99
2022-11-20T01:55:11.000Z,99.99
2022-11-20T01:56:11.000Z,99.99
2022-11-20T01:57:11.000Z,99.99
2022-11-20T01:58:11.000Z,99.99
2022-11-20T01:59:11.000Z,99.99
2022-11-20T02:00:11.000Z,99.99
2022-11-20T02:01:11.000Z,99.99
2022-11-20T02:02:11.000Z,99.99
2022-11-20T02:03:11.000Z,99.99
2022-11-20T02:04:11.000Z,99.99
2022-11-20T02:05:11.000Z,99.99
2022-11-20T02:06:11.000Z,99.99
2022-11-20T02:07:11.000Z,99.99
2022-11-20T02:08:11.000Z,99.99
2022-11-20T02:09:11.000Z,99.99
2022-11-20T02:10:11.000Z,99.96
2022-11-20T02:11:11.000Z,99.96
2022-11-20T02:12:11.000Z,99.85
2022-11-20T02:13:11.000Z,99.74
2022-11-20T02:14:11.000Z,99.74
2022-11-20T02:15:11.000Z,99.74
2022-11-20T02:16:11.000Z,99.74
2022-11-20T02:17:11.000Z,99.74
2022-11-20T02:18:11.000Z,99.74
2022-11-20T02:19:11.000Z,99.74
2022-11-20T02:20:11.000Z,99.74
2022-11-20T02:21:11.000Z,99.74
2022-11-20T02:22:10.000Z,99.74
2022-11-20T02:23:10.000Z,99.74
2022-11-20T02:24:10.000Z,99.74
2022-11-20T02:25:10.000Z,99.74
2022-11-20T02:26:10.000Z,99.64
2022-11-20T02:27:10.000Z,99.64
2022-11-20T02:28:10.000Z,99.64
2022-11-20T02:29:10.000Z,99.74
2022-11-20T02:30:10.000Z,99.74
2022-11-20T02:31:10.000Z,99.74
2022-11-20T02:32:10.000Z,99.85
2022-11-20T02:33:10.000Z,99.74
2022-11-20T02:34:10.000Z,99.74
2022-11-20T02:35:10.000Z,99.85
2022-11-20T02:36:10.000Z,99.74
2022-11-20T02:37:10.000Z,99.79
2022-11-20T02:38:10.000Z,99.74
2022-11-20T02:39:10.000Z,99.74
2022-11-20T02:40:10.000Z,99.79
2022-11-20T02:41:10.000Z,99.74
2022-11-20T02:42:10.000Z,99.79
2022-11-20T02:43:10.000Z,99.68
2022-11-20T02:44:10.000Z,99.68
2022-11-20T02:45:10.000Z,99.79
2022-11-20T02:46:10.000Z,99.68
2022-11-20T02:47:10.000Z,99.79
2022-11-20T02:48:10.000Z,99.79
2022-11-20T02:49:10.000Z,99.74
2022-11-20T02:50:10.000Z,99.79
2022-11-20T02:51:10.000Z,99.90
2022-11-20T02:52:10.000Z,99.90
2022-11-20T02:53:10.000Z,99.90
2022-11-20T02:54:10.000Z,99.79
2022-11-20T02:55:10.000Z,99.79
2022-11-20T02:56:10.000Z,99.79
2022-11-20T02:57:10.000Z,99.79
2022-11-20T02:58:10.000Z,99.68
2022-11-20T02:59:10.000Z,99.68
2022-11-20T03:00:10.000Z,99.68
2022-11-20T03:01:10.000Z,99.58
2022-11-20T03:02:10.000Z,99.68
2022-11-20T03:03:10.000Z,99.58
2022-11-20T03:04:10.000Z,99.68
2022-11-20T03:05:10.000Z,99.68
2022-11-20T03:06:10.000Z,99.68
2022-11-20T03:07:10.000Z,99.68
2022-11-20T03:08:10.000Z,99.79
2022-11-20T03:09:10.000Z,99.79
2022-11-20T03:10:10.000Z,99.79
2022-11-20T03:11:10.000Z,99.68
2022-11-20T03:12:10.000Z,99.68
2022-11-20T03:13:10.000Z,99.68
2022-11-20T03:14:10.000Z,99.68
2022-11-20T03:15:10.000Z,99.58
2022-11-20T03:16:10.000Z,99.58
2022-11-20T03:17:10.000Z,99.58
2022-11-20T03:18:10.000Z,99.47
2022-11-20T03:19:10.000Z,99.47
2022-11-20T03:20:10.000Z,99.47
2022-11-20T03:21:10.000Z,99.47
2022-11-20T03:22:10.000Z,99.47
2022-11-20T03:23:10.000Z,99.47
2022-11-20T03:24:10.000Z,99.37
2022-11-20T03:25:10.000Z,99.37
2022-11-20T03:26:10.000Z,99.41
2022-11-20T03:27:10.000Z,99.41
2022-11-20T03:28:10.000Z,99.37
2022-11-20T03:29:10.000Z,99.41
2022-11-20T03:30:10.000Z,99.52
2022-11-20T03:31:10.000Z,99.52
2022-11-20T03:32:10.000Z,99.58
2022-11-20T03:33:10.000Z,99.58
2022-11-20T03:34:10.000Z,99.68
2022-11-20T03:35:10.000Z,99.79
2022-11-20T03:36:10.000Z,99.79
2022-11-20T03:37:10.000Z,99.90
2022-11-20T03:38:10.000Z,99.90
2022-11-20T03:39:10.000Z,99.90
2022-11-20T03:40:10.000Z,99.90
2022-11-20T03:41:10.000Z,99.99
2022-11-20T03:42:10.000Z,99.99
2022-11-20T03:43:10.000Z,99.99
2022-11-20T03:44:10.000Z,99.99
2022-11-20T03:45:10.000Z,99.99
2022-11-20T03:46:10.000Z,99.99
2022-11-20T03:47:10.000Z,99.99
2022-11-20T03:48:10.000Z,99.99
2022-11-20T03:49:10.000Z,99.99
2022-11-20T03:50:10.000Z,99.99
2022-11-20T03:51:10.000Z,99.99
2022-11-20T03:52:10.000Z,99.99
2022-11-20T03:53:10.000Z,99.99
2022-11-20T03:54:10.000Z,99.99
2022-11-20T03:55:10.000Z,99.99
2022-11-20T03:56:10.000Z,99.99
2022-11-20T03:57:10.000Z,99.99
2022-11-20T03:58:10.000Z,99.99
2022-11-20T03:59:10.000Z,99.99
2022-11-20T04:00:10.000Z,99.99
2022-11-20T04:01:10.000Z,99.99
2022-11-20T04:02:10.000Z,99.99
2022-11-20T04:03:10.000Z,99.99
2022-11-20T04:04:09.000Z,99.99
2022-11-20T04:05:09.000Z,99.99
2022-11-20T04:06:09.000Z,99.99
2022-11-20T04:07:09.000Z,99.99
2022-11-20T04:08:09.000Z,99.99
2022-11-20T04:09:09.000Z,99.99
2022-11-20T04:10:09.000Z,99.99
2022-11-20T04:11:09.000Z,99.99
2022-11-20T04:12:09.000Z,99.99
2022-11-20T04:13:09.000Z,99.99
2022-11-20T04:14:09.000Z,99.99
2022-11-20T04:15:09.000Z,99.99
2022-11-20T04:16:09.000Z,99.90
2022-11-20T04:17:09.000Z,99.90
2022-11-20T04:18:09.000Z,99.99
2022-11-20T04:19:09.000Z,99.99
2022-11-20T04:20:09.000Z,99.99
2022-11-20T04:21:09.000Z,99.99
2022-11-20T04:22:09.000Z,99.99
2022-11-20T04:23:09.000Z,99.90
2022-11-20T04:24:09.000Z,99.90
2022-11-20T04:25:09.000Z,99.90
2022-11-20T04:26:09.000Z,99.90
2022-11-20T04:27:09.000Z,99.79
2022-11-20T04:28:09.000Z,99.90
2022-11-20T04:29:09.000Z,99.90
2022-11-20T04:30:09.000Z,99.79
2022-11-20T04:31:09.000Z,99.79
2022-11-20T04:32:09.000Z,99.79
2022-11-20T04:33:09.000Z,99.79
2022-11-20T04:34:09.000Z,99.79
2022-11-20T04:35:09.000Z,99.90
2022-11-20T04:36:09.000Z,99.90
2022-11-20T04:37:09.000Z,99.90
2022-11-20T04:38:09.000Z,99.90
2022-11-20T04:39:09.000Z,99.84
2022-11-20T04:40:09.000Z,99.84
2022-11-20T04:41:09.000Z,99.84
2022-11-20T04:42:09.000Z,99.84
2022-11-20T04:43:09.000Z,99.73
2022-11-20T04:44:09.000Z,99.73
2022-11-20T04:45:09.000Z,99.73
2022-11-20T04:46:09.000Z,99.62
2022-11-20T04:47:09.000Z,99.73
2022-11-20T04:48:09.000Z,99.73
2022-11-20T04:49:09.000Z,99.62
2022-11-20T04:50:09.000Z,99.73
2022-11-20T04:51:09.000Z,99.62
2022-11-20T04:52:09.000Z,99.62
2022-11-20T04:53:09.000Z,99.62
2022-11-20T04:54:09.000Z,99.62
2022-11-20T04:55:09.000Z,99.62
2022-11-20T04:56:09.000Z,99.62
2022-11-20T04:57:09.000Z,99.62
2022-11-20T04:58:09.000Z,99.73
2022-11-20T04:59:09.000Z,99.73
2022-11-20T05:00:09.000Z,99.84
2022-11-20T05:01:09.000Z,99.84
2022-11-20T05:02:09.000Z,99.84
2022-11-20T05:03:09.000Z,99.84
2022-11-20T05:04:09.000Z,99.84
2022-11-20T05:05:09.000Z,99.94
2022-11-20T05:06:09.000Z,99.99
2022-11-20T05:07:09.000Z,99.99
2022-11-20T05:08:09.000Z,99.99
2022-11-20T05:09:09.000Z,99.99
2022-11-20T05:10:09.000Z,99.99
2022-11-20T05:11:09.000Z,99.99
2022-11-20T05:12:09.000Z,99.99
2022-11-20T05:13:09.000Z,99.99
2022-11-20T05:14:09.000Z,99.99
2022-11-20T05:15:09.000Z,99.99
2022-11-20T05:16:09.000Z,99.99
2022-11-20T05:17:09.000Z,99.99
2022-11-20T05:18:09.000Z,99.99
2022-11-20T05:19:09.000Z,99.99
2022-11-20T05:20:09.000Z,99.99
2022-11-20T05:21:09.000Z,99.99
2022-11-20T05:22:09.000Z,99.99
2022-11-20T05:23:09.000Z,99.99
2022-11-20T05:24:09.000Z,99.99
2022-11-20T05:25:09.000Z,99.99
2022-11-20T05:26:09.000Z,99.99
2022-11-20T05:27:09.000Z,99.99
2022-11-20T05:28:09.000Z,99.99
2022-11-20T05:29:09.000Z,99.99
2022-11-20T05:30:09.000Z,99.99
2022-11-20T05:31:09.000Z,99.99
2022-11-20T05:32:09.000Z,99.94
2022-11-20T05:33:09.000Z,99.94
2022-11-20T05:34:09.000Z,99.84
2022-11-20T05:35:09.000Z,99.84
2022-11-20T05:36:09.000Z,99.77
2022-11-20T05:37:09.000Z,99.77
2022-11-20T05:38:09.000Z,99.66
2022-11-20T05:39:09.000Z,99.56
2022-11-20T05:40:09.000Z,99.56
2022-11-20T05:41:09.000Z,99.56
2022-11-20T05:42:09.000Z,99.56
2022-11-20T05:43:09.000Z,99.56
2022-11-20T05:44:09.000Z,99.56
2022-11-20T05:45:09.000Z,99.56
2022-11-20T05:46:09.000Z,99.56
2022-11-20T05:47:09.000Z,99.56
2022-11-20T05:48:09.000Z,99.46
2022-11-20T05:49:09.000Z,99.46
2022-11-20T05:50:09.000Z,99.46
2022-11-20T05:51:08.000Z,99.46
2022-11-20T05:52:08.000Z,99.46
2022-11-20T05:53:08.000Z,99.46
2022-11-20T05:54:08.000Z,99.46
2022-11-20T05:55:08.000Z,99.46
2022-11-20T05:56:08.000Z,99.56
2022-11-20T05:57:08.000Z,99.46
2022-11-20T05:58:08.000Z,99.56
2022-11-20T05:59:08.000Z,99.56
2022-11-20T06:00:08.000Z,99.56
2022-11-20T06:01:08.000Z,99.56
2022-11-20T06:02:08.000Z,99.50
2022-11-20T06:03:08.000Z,99.50
2022-11-20T06:04:08.000Z,99.39
2022-11-20T06:05:08.000Z,99.39
2022-11-20T06:06:08.000Z,99.29
2022-11-20T06:07:08.000Z,99.29
2022-11-20T06:08:08.000Z,99.29
2022-11-20T06:09:08.000Z,99.29
2022-11-20T06:10:08.000Z,99.29
2022-11-20T06:11:08.000Z,99.29
2022-11-20T06:12:08.000Z,99.29
2022-11-20T06:13:08.000Z,99.18
2022-11-20T06:14:08.000Z,99.18
2022-11-20T06:15:08.000Z,99.07
2022-11-20T06:16:08.000Z,99.07
2022-11-20T06:17:08.000Z,99.07
2022-11-20T06:18:08.000Z,99.07
2022-11-20T06:19:08.000Z,99.07
2022-11-20T06:20:08.000Z,99.07
2022-11-20T06:21:08.000Z,99.07
2022-11-20T06:22:08.000Z,99.07
2022-11-20T06:23:08.000Z,99.12
2022-11-20T06:24:08.000Z,99.07
2022-11-20T06:25:08.000Z,99.01
2022-11-20T06:26:08.000Z,99.12
2022-11-20T06:27:08.000Z,99.01
2022-11-20T06:28:08.000Z,99.01
2022-11-20T06:29:08.000Z,99.01
2022-11-20T06:30:08.000Z,99.01
2022-11-20T06:31:08.000Z,99.01
2022-11-20T06:32:08.000Z,99.12
2022-11-20T06:33:08.000Z,99.01
2022-11-20T06:34:08.000Z,99.01
2022-11-20T06:35:08.000Z,99.01
2022-11-20T06:36:08.000Z,99.12
2022-11-20T06:37:08.000Z,99.01
2022-11-20T06:38:08.000Z,99.01
2022-11-20T06:39:08.000Z,99.01
2022-11-20T06:40:08.000Z,99.01
2022-11-20T06:41:08.000Z,99.01
2022-11-20T06:42:08.000Z,99.01
2022-11-20T06:43:08.000Z,99.01
2022-11-20T06:44:08.000Z,99.01
2022-11-20T06:45:08.000Z,99.07
2022-11-20T06:46:08.000Z,99.22
2022-11-20T06:47:08.000Z,99.18
2022-11-20T06:48:08.000Z,99.29
2022-11-20T06:49:08.000Z,99.39
2022-11-20T06:50:08.000Z,99.60
2022-11-20T06:51:08.000Z,99.71
2022-11-20T06:52:08.000Z,99.71
2022-11-20T06:53:08.000Z,99.82
2022-11-20T06:54:08.000Z,99.77
2022-11-20T06:55:08.000Z,99.88
2022-11-20T06:56:08.000Z,99.98
2022-11-20T06:57:08.000Z,99.98
2022-11-20T06:58:08.000Z,99.98
2022-11-20T06:59:08.000Z,99.99
2022-11-20T07:00:08.000Z,99.99
2022-11-20T07:01:08.000Z,99.99
2022-11-20T07:02:08.000Z,99.99
2022-11-20T07:03:08.000Z,99.99
2022-11-20T07:04:08.000Z,99.99
2022-11-20T07:05:08.000Z,99.99
2022-11-20T07:06:08.000Z,99.99
2022-11-20T07:07:08.000Z,99.99
2022-11-20T07:08:08.000Z,99.99
2022-11-20T07:09:08.000Z,99.99
2022-11-20T07:10:08.000Z,99.99
2022-11-20T07:11:08.000Z,99.99
2022-11-20T07:12:08.000Z,99.99
2022-11-20T07:13:08.000Z,99.99
2022-11-20T07:14:08.000Z,99.99
2022-11-20T07:15:08.000Z,99.99
2022-11-20T07:16:08.000Z,99.99
2022-11-20T07:17:08.000Z,99.99
2022-11-20T07:18:08.000Z,99.99
2022-11-20T07:19:08.000Z,99.99
2022-11-20T07:20:08.000Z,99.99
2022-11-20T07:21:08.000Z,99.99
2022-11-20T07:22:08.000Z,99.99
2022-11-20T07:23:08.000Z,99.99
2022-11-20T07:24:08.000Z,99.99
2022-11-20T07:25:08.000Z,99.99
2022-11-20T07:26:08.000Z,99.99
2022-11-20T07:27:08.000Z,99.99
2022-11-20T07:28:08.000Z,99.99
2022-11-20T07:29:08.000Z,99.99
2022-11-20T07:30:08.000Z,99.99
2022-11-20T07:31:08.000Z,99.99
2022-11-20T07:32:08.000Z,99.99
2022-11-20T07:33:08.000Z,99.99
2022-11-20T07:34:08.000Z,99.99
2022-11-20T07:35:07.000Z,99.99
2022-11-20T07:36:07.000Z,99.99
2022-11-20T07:37:07.000Z,99.99
2022-11-20T07:38:07.000Z,99.99
2022-11-20T07:39:07.000Z,99.99
2022-11-20T07:40:07.000Z,99.99
2022-11-20T07:41:07.000Z,99.99
2022-11-20T07:42:07.000Z,99.78
2022-11-20T07:43:07.000Z,99.52
2022-11-20T07:44:07.000Z,99.27
2022-11-20T07:45:07.000Z,99.22
2022-11-20T07:46:07.000Z,99.01
2022-11-20T07:47:07.000Z,98.55
2022-11-20T07:48:07.000Z,98.44
2022-11-20T07:49:07.000Z,98.08
2022-11-20T07:50:07.000Z,96.77
2022-11-20T07:51:07.000Z,96.35
2022-11-20T07:52:07.000Z,96.20
2022-11-20T07:53:07.000Z,96.37
2022-11-20T07:54:07.000Z,95.42
2022-11-20T07:55:07.000Z,93.85
2022-11-20T07:56:07.000Z,92.48
2022-11-20T07:57:07.000Z,91.64
2022-11-20T07:58:07.000Z,92.06
2022-11-20T07:59:07.000Z,92.33
2022-11-20T08:00:07.000Z,91.91
2022-11-20T08:01:07.000Z,92.12
2022-11-20T08:02:07.000Z,91.71
2022-11-20T08:03:07.000Z,91.66
2022-11-20T08:04:07.000Z,91.14
2022-11-20T08:05:07.000Z,91.20
2022-11-20T08:06:07.000Z,89.94
2022-11-20T08:07:07.000Z,89.31
2022-11-20T08:08:07.000Z,90.05
2022-11-20T08:09:07.000Z,89.94
2022-11-20T08:10:07.000Z,90.22
2022-11-20T08:11:07.000Z,88.89
2022-11-20T08:12:07.000Z,89.17
2022-11-20T08:13:07.000Z,89.59
2022-11-20T08:13:07.000Z,89.59
2022-11-20T08:14:07.000Z,88.96
2022-11-20T08:14:07.000Z,88.96
2022-11-20T08:15:07.000Z,88.92
2022-11-20T08:15:07.000Z,88.92
2022-11-20T08:16:07.000Z,88.29
2022-11-20T08:16:07.000Z,88.29
2022-11-20T08:17:07.000Z,88.46
2022-11-20T08:17:07.000Z,88.46
2022-11-20T08:18:07.000Z,87.93
2022-11-20T08:19:07.000Z,87.62
2022-11-20T08:20:07.000Z,86.36
2022-11-20T08:21:07.000Z,86.46
2022-11-20T08:22:07.000Z,86.25
2022-11-20T08:23:07.000Z,86.85
2022-11-20T08:23:07.000Z,86.85
2022-11-20T08:24:07.000Z,86.53
2022-11-20T08:24:07.000Z,86.53
2022-11-20T08:25:07.000Z,85.52
2022-11-20T08:25:07.000Z,85.52
2022-11-20T08:26:07.000Z,86.63
2022-11-20T08:26:07.000Z,86.63
2022-11-20T08:27:07.000Z,86.53
2022-11-20T08:27:07.000Z,86.53
2022-11-20T08:28:07.000Z,86.49
2022-11-20T08:29:07.000Z,84.54
2022-11-20T08:30:07.000Z,85.27
2022-11-20T08:31:07.000Z,84.85
2022-11-20T08:32:07.000Z,85.17
2022-11-20T08:33:07.000Z,85.80
2022-11-20T08:34:07.000Z,86.43
2022-11-20T08:35:07.000Z,86.60
2022-11-20T08:36:07.000Z,86.32
2022-11-20T08:37:07.000Z,86.22
2022-11-20T08:38:07.000Z,85.97
2022-11-20T08:39:07.000Z,86.00
2022-11-20T08:40:07.000Z,87.05
2022-11-20T08:41:07.000Z,86.85
2022-11-20T08:42:07.000Z,86.63
2022-11-20T08:43:07.000Z,86.32
2022-11-20T08:44:07.000Z,86.85
2022-11-20T08:45:07.000Z,87.37
2022-11-20T08:46:07.000Z,87.99
2022-11-20T08:47:07.000Z,87.05
2022-11-20T08:48:07.000Z,87.47
2022-11-20T08:49:07.000Z,87.26
2022-11-20T08:50:07.000Z,87.58
2022-11-20T08:51:07.000Z,87.96
2022-11-20T08:52:07.000Z,88.37
2022-11-20T08:53:07.000Z,88.79
2022-11-20T08:54:07.000Z,89.84
2022-11-20T08:55:07.000Z,89.07
2022-11-20T08:56:07.000Z,88.79
2022-11-20T08:57:07.000Z,88.96
2022-11-20T08:58:07.000Z,88.96
2022-11-20T08:59:07.000Z,89.17
2022-11-20T09:00:07.000Z,88.96
2022-11-20T09:01:07.000Z,88.44
2022-11-20T09:02:07.000Z,88.17
2022-11-20T09:03:07.000Z,88.17
2022-11-20T09:04:07.000Z,88.27
2022-11-20T09:05:07.000Z,88.06
2022-11-20T09:06:07.000Z,88.27
2022-11-20T09:07:07.000Z,88.79
2022-11-20T09:08:07.000Z,89.22
2022-11-20T09:09:07.000Z,89.59
2022-11-20T09:10:07.000Z,89.80
2022-11-20T09:11:07.000Z,89.59
2022-11-20T09:12:07.000Z,89.97
2022-11-20T09:13:07.000Z,89.97
2022-11-20T09:14:06.000Z,89.55
2022-11-20T09:15:06.000Z,89.13
2022-11-20T09:16:06.000Z,89.23
2022-11-20T09:17:06.000Z,89.76
2022-11-20T09:18:06.000Z,88.82
2022-11-20T09:19:06.000Z,87.77
2022-11-20T09:20:06.000Z,88.71
2022-11-20T09:21:06.000Z,88.02
2022-11-20T09:22:06.000Z,87.92
2022-11-20T09:23:06.000Z,87.71
2022-11-20T09:24:06.000Z,88.02
2022-11-20T09:25:06.000Z,88.23
2022-11-20T09:26:06.000Z,88.44
2022-11-20T09:27:06.000Z,88.96
2022-11-20T09:28:06.000Z,89.00
2022-11-20T09:29:06.000Z,87.85
2022-11-20T09:30:06.000Z,88.90
2022-11-20T09:31:06.000Z,89.42
2022-11-20T09:32:06.000Z,88.59
2022-11-20T09:33:06.000Z,89.22
2022-11-20T09:34:06.000Z,89.70
2022-11-20T09:35:06.000Z,90.11
2022-11-20T09:36:06.000Z,89.38
2022-11-20T09:37:06.000Z,89.07
2022-11-20T09:38:06.000Z,88.69
2022-11-20T09:39:06.000Z,89.11
2022-11-20T09:40:06.000Z,89.42
2022-11-20T09:41:06.000Z,89.38
2022-11-20T09:42:06.000Z,89.70
2022-11-20T09:43:06.000Z,89.70
2022-11-20T09:44:06.000Z,89.70
2022-11-20T09:45:06.000Z,89.97
2022-11-20T09:46:06.000Z,90.49
2022-11-20T09:47:06.000Z,89.23
2022-11-20T09:48:06.000Z,88.92
2022-11-20T09:49:06.000Z,89.45
2022-11-20T09:50:06.000Z,88.29
2022-11-20T09:51:06.000Z,88.40
2022-11-20T09:52:06.000Z,88.61
2022-11-20T09:53:06.000Z,88.61
2022-11-20T09:54:06.000Z,88.36
2022-11-20T09:55:06.000Z,87.94
2022-11-20T09:56:06.000Z,88.36
2022-11-20T09:57:06.000Z,87.42
2022-11-20T09:58:06.000Z,87.94
2022-11-20T09:59:06.000Z,88.78
2022-11-20T10:00:06.000Z,87.73
2022-11-20T10:01:06.000Z,87.63
2022-11-20T10:02:06.000Z,86.79
2022-11-20T10:03:06.000Z,87.21
2022-11-20T10:04:06.000Z,88.57
2022-11-20T10:05:06.000Z,88.09
2022-11-20T10:06:06.000Z,87.63
2022-11-20T10:07:06.000Z,87.63
2022-11-20T10:08:06.000Z,87.35
2022-11-20T10:09:06.000Z,87.04
2022-11-20T10:10:06.000Z,87.15
2022-11-20T10:11:06.000Z,87.46
2022-11-20T10:12:06.000Z,86.93
2022-11-20T10:13:06.000Z,86.47
2022-11-20T10:14:06.000Z,87.31
2022-11-20T10:15:06.000Z,88.32
2022-11-20T10:16:06.000Z,87.69
2022-11-20T10:17:06.000Z,87.23
2022-11-20T10:18:06.000Z,86.05
2022-11-20T10:19:06.000Z,85.31
2022-11-20T10:20:06.000Z,85.27
2022-11-20T10:21:06.000Z,84.61
2022-11-20T10:22:06.000Z,84.50
2022-11-20T10:23:06.000Z,83.84
2022-11-20T10:24:06.000Z,83.70
2022-11-20T10:25:06.000Z,82.82
2022-11-20T10:26:06.000Z,82.06
2022-11-20T10:27:06.000Z,83.48
2022-11-20T10:28:06.000Z,80.43
2022-11-20T10:29:06.000Z,80.49
2022-11-20T10:30:06.000Z,78.58
2022-11-20T10:31:06.000Z,77.27
2022-11-20T10:32:06.000Z,77.06
2022-11-20T10:33:06.000Z,77.96
2022-11-20T10:34:06.000Z,77.03
2022-11-20T10:35:06.000Z,77.06
2022-11-20T10:36:06.000Z,75.92
2022-11-20T10:37:06.000Z,76.29
2022-11-20T10:38:06.000Z,76.19
2022-11-20T10:39:06.000Z,76.51
2022-11-20T10:40:06.000Z,76.37
2022-11-20T10:41:06.000Z,75.85
2022-11-20T10:42:06.000Z,75.60
2022-11-20T10:43:06.000Z,75.05
2022-11-20T10:44:06.000Z,75.12
2022-11-20T10:45:06.000Z,73.84
2022-11-20T10:46:06.000Z,73.32
2022-11-20T10:47:06.000Z,72.67
2022-11-20T10:48:06.000Z,73.57
2022-11-20T10:49:06.000Z,71.46
2022-11-20T10:50:06.000Z,70.32
2022-11-20T10:51:06.000Z,69.18
2022-11-20T10:52:05.000Z,69.18
2022-11-20T10:53:05.000Z,71.36
2022-11-20T10:54:05.000Z,71.01
2022-11-20T10:55:05.000Z,69.98
2022-11-20T10:56:05.000Z,69.12
2022-11-20T10:57:05.000Z,71.81
2022-11-20T10:58:05.000Z,69.19
2022-11-20T10:59:05.000Z,68.15
2022-11-20T11:00:05.000Z,67.85
2022-11-20T11:01:05.000Z,68.67
2022-11-20T11:02:05.000Z,68.49
2022-11-20T11:03:05.000Z,68.26
2022-11-20T11:04:05.000Z,69.29
2022-11-20T11:05:05.000Z,67.09
2022-11-20T11:06:05.000Z,67.30
2022-11-20T11:07:05.000Z,68.95
2022-11-20T11:08:05.000Z,66.88
2022-11-20T11:09:05.000Z,66.88
2022-11-20T11:10:05.000Z,66.06
2022-11-20T11:11:05.000Z,67.91
2022-11-20T11:12:05.000Z,65.64
2022-11-20T11:13:05.000Z,66.64
2022-11-20T11:14:05.000Z,66.10
2022-11-20T11:15:05.000Z,65.76
2022-11-20T11:16:05.000Z,67.93
2022-11-20T11:17:05.000Z,66.27
2022-11-20T11:18:05.000Z,63.93
2022-11-20T11:19:05.000Z,65.37
2022-11-20T11:20:05.000Z,65.45
2022-11-20T11:21:05.000Z,64.70
2022-11-20T11:22:05.000Z,62.84
2022-11-20T11:23:05.000Z,64.07
2022-11-20T11:24:05.000Z,64.46
2022-11-20T11:25:05.000Z,62.08
2022-11-20T11:26:05.000Z,63.84
2022-11-20T11:27:05.000Z,61.68
2022-11-20T11:28:05.000Z,62.08
2022-11-20T11:29:05.000Z,62.74
2022-11-20T11:30:05.000Z,63.01
2022-11-20T11:31:05.000Z,63.87
2022-11-20T11:32:05.000Z,63.90
2022-11-20T11:33:05.000Z,64.83
2022-11-20T11:34:05.000Z,66.27
2022-11-20T11:35:05.000Z,63.15
2022-11-20T11:36:05.000Z,63.84
2022-11-20T11:37:05.000Z,61.88
2022-11-20T11:38:05.000Z,63.19
2022-11-20T11:39:05.000Z,62.68
2022-11-20T11:40:05.000Z,61.05
2022-11-20T11:41:05.000Z,62.08
2022-11-20T11:42:05.000Z,61.98
2022-11-20T11:43:05.000Z,61.68
2022-11-20T11:44:05.000Z,61.24
2022-11-20T11:45:05.000Z,61.10
2022-11-20T11:46:05.000Z,59.69
2022-11-20T11:47:05.000Z,60.10
2022-11-20T11:48:05.000Z,60.28
2022-11-20T11:49:05.000Z,60.07
2022-11-20T11:50:05.000Z,60.38
2022-11-20T11:51:05.000Z,61.75
2022-11-20T11:52:05.000Z,61.16
2022-11-20T11:53:05.000Z,61.65
2022-11-20T11:54:05.000Z,59.77
2022-11-20T11:55:05.000Z,61.82
2022-11-20T11:56:05.000Z,60.41
2022-11-20T11:57:05.000Z,61.31
2022-11-20T11:58:05.000Z,59.97
2022-11-20T11:59:05.000Z,59.53
2022-11-20T12:00:05.000Z,57.47
2022-11-20T12:01:05.000Z,58.70
2022-11-20T12:02:05.000Z,58.29
2022-11-20T12:03:05.000Z,58.19
2022-11-20T12:04:05.000Z,59.01
2022-11-20T12:05:05.000Z,58.09
2022-11-20T12:06:05.000Z,57.96
2022-11-20T12:07:05.000Z,57.75
2022-11-20T12:08:05.000Z,57.65
2022-11-20T12:09:05.000Z,58.50
2022-11-20T12:10:05.000Z,60.13
2022-11-20T12:11:05.000Z,58.92
2022-11-20T12:12:05.000Z,60.42
2022-11-20T12:13:05.000Z,61.10
2022-11-20T12:14:05.000Z,62.46
2022-11-20T12:15:05.000Z,63.15
2022-11-20T12:16:05.000Z,64.62
2022-11-20T12:17:05.000Z,64.79
2022-11-20T12:18:05.000Z,65.86
2022-11-20T12:19:05.000Z,67.37
2022-11-20T12:20:05.000Z,68.33
2022-11-20T12:21:05.000Z,69.51
2022-11-20T12:22:05.000Z,71.13
2022-11-20T12:23:05.000Z,71.79
2022-11-20T12:24:05.000Z,72.76
2022-11-20T12:25:05.000Z,73.32
2022-11-20T12:26:04.000Z,73.76
2022-11-20T12:27:04.000Z,74.95
2022-11-20T12:28:04.000Z,75.92
2022-11-20T12:29:04.000Z,76.65
2022-11-20T12:30:04.000Z,77.72
2022-11-20T12:31:04.000Z,77.51
2022-11-20T12:32:04.000Z,77.66